Time;durP1;ratioP1;P1;durP2;ratioP2;P2;SDS_P1;SDS_P2;PMS_P1;PMS_P2;Temp;Humidity;BMP_temperature;BMP_pressure;BME280_temperature;BME280_humidity;BME280_pressure;Samples;Min_cycle;Max_cycle;Signal;HPM_P1;HPM_P2
2022/04/18 00:02:18;;;;;;;2.08;0.95;;;11.10;29.50;;;;;;2333411;53;20940;-84
2022/04/18 00:04:45;;;;;;;2.30;0.93;;;11.00;29.50;;;;;;2352643;54;20935;-85
2022/04/18 00:07:11;;;;;;;1.55;0.73;;;11.00;29.50;;;;;;2597373;53;21012;-85
2022/04/18 00:09:37;;;;;;;2.83;1.02;;;10.90;29.60;;;;;;2349928;54;21023;-84
2022/04/18 00:12:04;;;;;;;1.77;0.80;;;10.80;29.60;;;;;;2597345;53;20940;-84
2022/04/18 00:14:30;;;;;;;2.15;0.80;;;10.80;29.70;;;;;;2597647;53;20968;-84
2022/04/18 00:16:57;;;;;;;2.00;0.80;;;10.70;29.70;;;;;;2352368;54;20975;-83
2022/04/18 00:19:23;;;;;;;2.08;0.70;;;10.70;29.80;;;;;;2352371;54;20967;-83
2022/04/18 00:21:50;;;;;;;2.00;0.73;;;10.60;29.80;;;;;;2352030;54;20948;-85
2022/04/18 00:24:17;;;;;;;1.37;0.65;;;10.50;29.90;;;;;;2597544;53;21003;-84
2022/04/18 00:26:44;;;;;;;1.48;0.65;;;10.50;29.90;;;;;;2597765;53;20915;-84
2022/04/18 00:29:10;;;;;;;1.58;0.65;;;10.40;29.90;;;;;;2598291;53;20940;-83
2022/04/18 00:31:37;;;;;;;1.42;0.70;;;10.40;30.00;;;;;;2597902;53;21763;-84
2022/04/18 00:34:04;;;;;;;1.77;0.70;;;10.30;30.00;;;;;;2598264;53;20910;-84
2022/04/18 00:36:30;;;;;;;1.50;0.70;;;10.20;30.00;;;;;;2598514;53;20912;-84
2022/04/18 00:38:56;;;;;;;1.42;0.60;;;10.20;30.10;;;;;;2352723;54;20939;-84
2022/04/18 00:41:23;;;;;;;1.80;0.77;;;10.10;30.10;;;;;;2352837;54;21398;-83
2022/04/18 00:43:50;;;;;;;1.92;0.65;;;10.10;30.30;;;;;;2597626;53;20920;-84
2022/04/18 00:46:19;;;;;;;1.77;0.70;;;10.00;30.30;;;;;;2352914;54;20948;-83
2022/04/18 00:48:46;;;;;;;1.52;0.62;;;10.00;30.50;;;;;;2353116;54;20912;-84
2022/04/18 00:51:14;;;;;;;2.03;0.70;;;9.90;31.30;;;;;;2597725;53;20935;-83
2022/04/18 00:53:41;;;;;;;1.58;0.70;;;9.90;31.40;;;;;;2572981;52;22132;-85
2022/04/18 00:56:08;;;;;;;2.05;0.93;;;9.80;31.50;;;;;;2577680;52;20935;-84
2022/04/18 00:58:35;;;;;;;1.98;0.90;;;9.80;31.60;;;;;;2586372;52;20940;-84
2022/04/18 01:01:02;;;;;;;2.80;1.00;;;9.70;31.60;;;;;;2597893;53;20900;-84
2022/04/18 01:03:30;;;;;;;2.42;0.80;;;9.70;31.80;;;;;;2598115;53;20944;-83
2022/04/18 01:06:00;;;;;;;1.60;0.70;;;9.60;31.90;;;;;;2569587;53;20944;-84
2022/04/18 01:08:31;;;;;;;1.92;0.77;;;9.60;32.20;;;;;;2597806;53;20952;-84
2022/04/18 01:10:58;;;;;;;1.60;0.60;;;9.50;32.10;;;;;;2597860;53;20974;-84
2022/04/18 01:13:24;;;;;;;1.60;0.70;;;9.50;32.10;;;;;;2598011;53;20984;-84
2022/04/18 01:15:57;;;;;;;2.17;0.80;;;9.40;32.20;;;;;;2598482;53;20924;-83
2022/04/18 01:18:23;;;;;;;;;;;9.40;32.50;;;;;;2602360;53;21774;-83
2022/04/18 01:20:50;;;;;;;1.98;0.60;;;9.30;32.70;;;;;;2598284;53;20142;-83
2022/04/18 01:23:17;;;;;;;2.20;0.75;;;9.30;32.10;;;;;;2352576;54;20901;-83
2022/04/18 01:31:13;;;;;;;1.25;0.60;;;9.10;32.40;;;;;;2352818;54;20927;-84
2022/04/18 01:33:39;;;;;;;1.92;0.88;;;9.00;32.40;;;;;;2598098;53;20964;-83
2022/04/18 01:36:06;;;;;;;2.05;0.80;;;9.00;32.50;;;;;;2353148;54;21799;-83
2022/04/18 01:38:32;;;;;;;1.52;0.70;;;9.00;32.70;;;;;;2598775;53;20928;-84
2022/04/18 01:40:59;;;;;;;2.58;0.85;;;8.90;32.70;;;;;;2597470;53;20983;-84
2022/04/18 01:43:25;;;;;;;1.60;0.70;;;8.90;32.80;;;;;;2598221;53;21004;-84
2022/04/18 01:45:51;;;;;;;3.58;1.05;;;8.90;32.80;;;;;;2352419;54;20900;-83
2022/04/18 01:48:18;;;;;;;2.85;1.30;;;8.80;32.90;;;;;;2598709;53;21597;-84
2022/04/18 01:50:44;;;;;;;3.20;1.30;;;8.80;33.00;;;;;;2352315;54;20988;-84
2022/04/18 01:53:12;;;;;;;2.45;0.90;;;8.80;33.10;;;;;;2596611;53;20952;-84
2022/04/18 01:55:38;;;;;;;2.65;1.20;;;8.80;33.10;;;;;;2338902;53;20922;-83
2022/04/18 01:58:05;;;;;;;2.25;0.95;;;8.80;33.10;;;;;;2573017;52;21435;-84
2022/04/18 02:00:32;;;;;;;1.40;0.77;;;8.70;33.30;;;;;;2346960;53;21007;-83
2022/04/18 02:02:58;;;;;;;2.12;0.90;;;8.70;33.30;;;;;;2344155;53;20904;-83
2022/04/18 02:05:25;;;;;;;2.12;0.90;;;8.70;33.30;;;;;;2596461;53;20971;-83
2022/04/18 02:07:51;;;;;;;1.75;0.75;;;8.70;33.40;;;;;;2589532;53;22024;-84
2022/04/18 02:10:17;;;;;;;2.22;0.85;;;8.60;33.50;;;;;;2584258;52;21044;-84
2022/04/18 02:12:44;;;;;;;2.00;0.70;;;8.60;33.50;;;;;;2596129;52;20956;-84
2022/04/18 02:15:10;;;;;;;1.52;0.70;;;8.50;33.50;;;;;;2575921;52;20939;-84
2022/04/18 02:17:36;;;;;;;2.15;0.80;;;8.50;33.60;;;;;;2348587;53;20963;-84
2022/04/18 02:20:03;;;;;;;1.80;0.62;;;8.50;33.60;;;;;;2596067;52;21000;-84
2022/04/18 02:22:30;;;;;;;1.77;0.77;;;8.50;33.80;;;;;;2350435;54;22042;-84
2022/04/18 02:24:59;;;;;;;3.12;0.60;;;8.40;33.80;;;;;;2331665;53;20999;-83
2022/04/18 02:27:26;;;;;;;1.17;0.60;;;8.40;33.80;;;;;;2331138;53;21058;-82
2022/04/18 02:29:52;;;;;;;2.47;0.80;;;8.30;33.80;;;;;;2595086;53;21020;-83
2022/04/18 02:35:04;;;;;;;1.87;0.80;;;8.30;34.00;;;;;;2351982;54;20888;-83
2022/04/18 02:37:31;;;;;;;2.17;0.80;;;8.30;34.10;;;;;;2579882;52;20939;-83
2022/04/18 02:39:59;;;;;;;2.20;0.82;;;8.20;34.10;;;;;;2587489;52;20956;-84
2022/04/18 02:42:26;;;;;;;2.80;0.73;;;8.20;34.20;;;;;;2597283;53;20959;-83
2022/04/18 02:44:52;;;;;;;1.87;0.80;;;8.20;34.20;;;;;;2352353;54;20896;-83
2022/04/18 02:47:19;;;;;;;1.95;0.85;;;8.10;34.30;;;;;;2596196;53;21463;-84
2022/04/18 02:49:45;;;;;;;2.12;0.77;;;8.10;34.30;;;;;;2597407;53;20958;-83
2022/04/18 02:52:12;;;;;;;2.15;0.85;;;8.10;34.40;;;;;;2598022;53;20974;-82
2022/04/18 02:54:38;;;;;;;1.90;0.80;;;8.00;34.40;;;;;;2597834;53;20960;-83
2022/04/18 02:57:05;;;;;;;2.30;0.90;;;8.00;34.50;;;;;;2597284;53;20941;-84
2022/04/18 02:59:31;;;;;;;2.30;1.08;;;8.00;34.60;;;;;;2598595;53;21003;-84
2022/04/18 03:01:58;;;;;;;1.75;0.62;;;7.90;34.50;;;;;;2598760;53;20904;-83
2022/04/18 03:04:25;;;;;;;2.37;1.00;;;7.90;34.60;;;;;;2598667;53;21521;-83
2022/04/18 03:06:52;;;;;;;1.98;0.80;;;7.90;34.70;;;;;;2590070;52;20998;-84
2022/04/18 03:09:19;;;;;;;2.58;0.90;;;7.80;34.70;;;;;;2597357;52;20936;-84
2022/04/18 03:11:45;;;;;;;2.00;0.80;;;7.80;34.80;;;;;;2352708;54;20940;-84
2022/04/18 03:14:11;;;;;;;2.70;0.90;;;7.70;34.70;;;;;;2598373;53;20920;-84
2022/04/18 03:16:38;;;;;;;3.15;1.12;;;7.70;34.80;;;;;;2341934;53;21014;-82
2022/04/18 03:19:04;;;;;;;2.80;0.85;;;7.70;34.90;;;;;;2589166;52;20932;-83
2022/04/18 03:21:30;;;;;;;1.52;0.70;;;7.60;35.00;;;;;;2353129;54;20916;-84
2022/04/18 03:23:57;;;;;;;1.90;0.90;;;7.60;35.00;;;;;;2352252;54;21783;-83
2022/04/18 03:26:23;;;;;;;1.80;0.77;;;7.60;35.20;;;;;;2353085;54;20996;-83
2022/04/18 03:28:50;;;;;;;1.90;0.90;;;7.50;35.20;;;;;;2598686;53;20900;-84
2022/04/18 03:31:17;;;;;;;1.87;0.70;;;7.50;35.30;;;;;;2597597;53;21443;-83
2022/04/18 03:33:43;;;;;;;1.73;0.80;;;7.50;35.50;;;;;;2598447;53;21773;-84
2022/04/18 03:41:39;;;;;;;3.30;0.95;;;7.50;35.60;;;;;;2352868;54;20952;-83
2022/04/18 03:44:06;;;;;;;1.90;0.75;;;7.50;35.60;;;;;;2598784;53;20912;-83
2022/04/18 03:46:32;;;;;;;2.30;0.90;;;7.50;35.70;;;;;;2597739;53;21019;-84
2022/04/18 03:48:59;;;;;;;2.03;0.80;;;7.50;35.90;;;;;;2578690;52;20916;-85
2022/04/18 03:51:25;;;;;;;1.58;0.68;;;7.50;35.90;;;;;;2584985;52;20900;-84
2022/04/18 03:53:52;;;;;;;2.85;0.98;;;7.50;35.90;;;;;;2598726;53;21404;-84
2022/04/18 03:56:18;;;;;;;2.20;0.93;;;7.50;35.90;;;;;;2598539;53;20964;-84
2022/04/18 03:58:44;;;;;;;2.58;1.00;;;7.50;35.90;;;;;;2596966;53;21055;-84
2022/04/18 04:01:11;;;;;;;1.70;0.70;;;7.50;35.90;;;;;;2580162;52;20995;-84
2022/04/18 04:03:37;;;;;;;3.40;0.70;;;7.50;36.00;;;;;;2586716;52;20935;-83
2022/04/18 04:06:03;;;;;;;1.45;0.70;;;7.50;36.10;;;;;;2598520;53;20920;-83
2022/04/18 04:08:32;;;;;;;2.72;0.90;;;7.50;36.10;;;;;;2352941;54;20955;-84
2022/04/18 04:10:58;;;;;;;2.67;0.80;;;7.50;36.00;;;;;;2598638;53;20924;-85
2022/04/18 04:13:25;;;;;;;2.45;1.00;;;7.50;36.10;;;;;;2599342;53;20996;-84
2022/04/18 04:15:51;;;;;;;2.22;0.80;;;7.50;36.10;;;;;;2598925;53;21497;-84
2022/04/18 04:18:18;;;;;;;2.40;0.88;;;7.50;36.20;;;;;;2599277;53;20932;-83
2022/04/18 04:20:45;;;;;;;2.12;0.70;;;7.50;36.30;;;;;;2352880;54;20912;-83
2022/04/18 04:23:15;;;;;;;2.50;0.88;;;7.50;36.30;;;;;;2598165;53;20904;-83
2022/04/18 04:25:41;;;;;;;3.80;0.85;;;7.50;36.30;;;;;;2589471;52;20966;-83
2022/04/18 04:28:07;;;;;;;1.85;0.77;;;7.50;36.30;;;;;;2337822;53;20888;-84
2022/04/18 04:30:34;;;;;;;2.53;0.82;;;7.40;36.30;;;;;;2353014;54;20940;-83
2022/04/18 04:33:00;;;;;;;2.10;0.80;;;7.40;36.40;;;;;;2598433;53;20944;-84
2022/04/18 04:35:26;;;;;;;2.95;0.77;;;7.40;36.50;;;;;;2599681;53;20936;-84
2022/04/18 04:37:53;;;;;;;2.45;0.70;;;7.40;36.60;;;;;;2599398;53;20969;-83
2022/04/18 04:40:19;;;;;;;2.78;0.60;;;7.40;36.70;;;;;;2352598;54;21494;-84
2022/04/18 04:42:46;;;;;;;1.65;0.62;;;7.40;36.70;;;;;;2599469;53;20920;-84
2022/04/18 04:45:13;;;;;;;1.48;0.62;;;7.30;36.70;;;;;;2583447;52;21039;-84
2022/04/18 04:47:39;;;;;;;2.42;0.90;;;7.30;36.80;;;;;;2585323;52;21940;-84
2022/04/18 04:50:06;;;;;;;2.05;0.80;;;7.30;36.80;;;;;;2599194;53;20964;-83
2022/04/18 04:52:33;;;;;;;3.35;0.90;;;7.30;36.90;;;;;;2354454;54;20896;-84
2022/04/18 04:54:59;;;;;;;1.62;0.70;;;7.30;36.90;;;;;;2599383;53;21027;-83
2022/04/18 04:57:26;;;;;;;2.00;0.85;;;7.30;37.00;;;;;;2334864;53;20982;-83
2022/04/18 04:59:52;;;;;;;2.10;0.80;;;7.30;37.10;;;;;;2593050;52;21048;-83
2022/04/18 05:02:19;;;;;;;2.15;0.90;;;7.30;37.10;;;;;;2343912;53;20947;-84
2022/04/18 05:04:48;;;;;;;2.12;0.80;;;7.30;37.10;;;;;;2578947;52;21114;-83
2022/04/18 05:07:15;;;;;;;2.53;0.90;;;7.30;37.20;;;;;;2578906;52;20952;-83
2022/04/18 05:09:41;;;;;;;2.80;1.02;;;7.20;37.10;;;;;;2584907;52;20983;-83
2022/04/18 05:12:08;;;;;;;2.47;0.85;;;7.20;37.20;;;;;;2583912;52;21019;-84
2022/04/18 05:14:35;;;;;;;2.83;1.10;;;7.20;37.30;;;;;;2353458;54;20975;-84
2022/04/18 05:17:02;;;;;;;2.53;0.90;;;7.20;37.30;;;;;;2599188;53;20975;-83
2022/04/18 05:19:28;;;;;;;2.37;0.90;;;7.20;37.40;;;;;;2599703;53;20922;-85
2022/04/18 05:21:54;;;;;;;2.33;0.82;;;7.10;37.40;;;;;;2599273;53;21043;-84
2022/04/18 05:24:21;;;;;;;2.75;1.12;;;7.10;37.50;;;;;;2353041;54;20944;-84
2022/04/18 05:26:47;;;;;;;2.03;0.90;;;7.10;37.60;;;;;;2355162;54;20896;-84
2022/04/18 05:29:14;;;;;;;2.12;1.00;;;7.10;37.70;;;;;;2571024;52;21019;-83
2022/04/18 05:31:40;;;;;;;2.55;1.12;;;7.10;37.80;;;;;;2598667;53;21016;-83
2022/04/18 05:34:06;;;;;;;2.25;1.00;;;7.10;37.80;;;;;;2571201;52;20955;-84
2022/04/18 05:36:33;;;;;;;2.67;0.90;;;7.10;37.80;;;;;;2349338;53;20913;-83
2022/04/18 05:38:59;;;;;;;3.15;1.00;;;7.10;38.00;;;;;;2598639;52;22187;-84
2022/04/18 05:41:26;;;;;;;2.00;0.90;;;7.10;38.00;;;;;;2598829;53;20916;-84
2022/04/18 05:43:52;;;;;;;2.33;0.85;;;7.10;38.10;;;;;;2598274;53;20944;-84
2022/04/18 05:46:18;;;;;;;2.37;1.08;;;7.10;38.10;;;;;;2352657;54;21155;-83
2022/04/18 05:48:45;;;;;;;2.65;1.15;;;7.20;38.20;;;;;;2598793;53;20975;-83
2022/04/18 05:51:11;;;;;;;2.97;1.20;;;7.20;38.30;;;;;;2570963;52;20927;-83
2022/04/18 05:53:38;;;;;;;2.60;1.00;;;7.20;38.40;;;;;;2594527;52;20896;-83
2022/04/18 05:56:05;;;;;;;1.75;0.93;;;7.20;38.50;;;;;;2350862;54;20948;-82
2022/04/18 05:58:31;;;;;;;2.22;0.90;;;7.30;38.70;;;;;;2596492;53;20952;-83
2022/04/18 06:00:58;;;;;;;3.25;1.10;;;7.30;38.70;;;;;;2596550;53;20983;-83
2022/04/18 06:03:24;;;;;;;2.20;1.00;;;7.40;38.80;;;;;;2350142;54;20940;-83
2022/04/18 06:05:51;;;;;;;2.17;0.90;;;7.40;38.90;;;;;;2351396;54;20959;-84
2022/04/18 06:08:18;;;;;;;2.20;1.00;;;7.50;39.00;;;;;;2591265;53;20963;-83
2022/04/18 06:10:44;;;;;;;2.35;1.00;;;7.50;39.00;;;;;;2595427;52;20970;-83
2022/04/18 06:13:12;;;;;;;2.12;0.90;;;7.60;39.10;;;;;;2345223;53;20943;-85
2022/04/18 06:15:39;;;;;;;2.60;0.90;;;7.70;39.20;;;;;;2338102;53;21002;-84
2022/04/18 06:18:05;;;;;;;2.62;1.00;;;7.70;39.20;;;;;;2597361;53;20934;-84
2022/04/18 06:20:31;;;;;;;2.58;1.10;;;7.80;39.90;;;;;;2596778;53;20912;-84
2022/04/18 06:22:57;;;;;;;2.65;1.02;;;7.90;39.30;;;;;;2593492;53;21024;-82
2022/04/18 06:25:24;;;;;;;2.58;1.00;;;8.00;39.40;;;;;;2592755;53;21054;-82
2022/04/18 06:27:50;;;;;;;1.92;0.90;;;8.10;39.50;;;;;;2345270;54;20987;-82
2022/04/18 06:30:16;;;;;;;2.03;0.82;;;8.20;39.60;;;;;;2591010;53;20947;-81
2022/04/18 06:32:44;;;;;;;2.40;1.10;;;8.30;39.60;;;;;;2350667;54;20956;-83
2022/04/18 06:35:10;;;;;;;4.07;1.00;;;8.30;39.60;;;;;;2589056;53;21003;-82
2022/04/18 06:37:37;;;;;;;2.17;1.02;;;8.50;39.70;;;;;;2581041;52;20983;-84
2022/04/18 06:40:04;;;;;;;3.33;1.15;;;8.60;39.80;;;;;;2573143;52;20976;-83
2022/04/18 06:42:35;;;;;;;2.22;0.93;;;8.70;39.80;;;;;;2592593;53;20997;-83
2022/04/18 06:45:01;;;;;;;2.17;0.90;;;8.80;39.90;;;;;;2585602;52;21561;-82
2022/04/18 06:47:28;;;;;;;2.75;0.98;;;8.90;39.70;;;;;;2572122;52;21805;-83
2022/04/18 06:49:54;;;;;;;1.33;0.70;;;9.00;39.90;;;;;;2591961;52;20968;-83
2022/04/18 06:52:22;;;;;;;2.00;0.82;;;9.20;40.50;;;;;;2593377;53;21991;-85
2022/04/18 06:54:49;;;;;;;2.22;0.90;;;9.50;41.40;;;;;;2592915;53;21474;-83
2022/04/18 06:57:16;;;;;;;3.28;1.20;;;9.90;42.50;;;;;;2593227;53;20952;-84
2022/04/18 06:59:43;;;;;;;2.33;1.05;;;10.30;42.20;;;;;;2347586;54;20997;-84
2022/04/18 07:02:09;;;;;;;2.50;0.82;;;10.90;43.00;;;;;;2338676;53;20951;-84
2022/04/18 07:04:35;;;;;;;2.03;0.85;;;11.40;43.50;;;;;;2335756;53;20987;-85
2022/04/18 07:07:06;;;;;;;2.50;1.10;;;12.10;44.10;;;;;;2584049;52;20957;-83
2022/04/18 07:09:32;;;;;;;2.08;0.90;;;12.70;44.10;;;;;;2591028;53;21513;-83
2022/04/18 07:11:58;;;;;;;2.17;0.90;;;13.50;44.30;;;;;;2332298;53;21018;-83
2022/04/18 07:14:25;;;;;;;2.17;0.95;;;14.10;44.10;;;;;;2580637;52;25784;-84
2022/04/18 07:16:52;;;;;;;2.95;1.30;;;14.80;43.90;;;;;;2336515;53;20931;-84
2022/04/18 07:19:19;;;;;;;2.20;1.00;;;15.40;43.90;;;;;;2569684;52;21047;-82
2022/04/18 07:21:47;;;;;;;2.30;0.95;;;16.10;43.60;;;;;;2585717;52;21008;-83
2022/04/18 07:24:13;;;;;;;1.92;0.90;;;16.70;43.00;;;;;;2590842;53;22053;-83
2022/04/18 07:26:40;;;;;;;1.98;0.95;;;17.30;42.70;;;;;;2345342;54;21185;-84
2022/04/18 07:29:07;;;;;;;2.78;1.10;;;17.90;42.50;;;;;;2592548;53;20987;-85
2022/04/18 07:31:33;;;;;;;2.42;0.90;;;18.60;42.00;;;;;;2591610;53;21019;-83
2022/04/18 07:34:00;;;;;;;2.33;1.10;;;19.10;41.80;;;;;;2591601;53;21454;-84
2022/04/18 07:36:27;;;;;;;3.28;1.02;;;19.60;41.10;;;;;;2581831;52;20991;-82
2022/04/18 07:38:53;;;;;;;2.03;0.80;;;20.00;40.00;;;;;;2574241;52;20933;-81
2022/04/18 07:41:27;;;;;;;2.53;0.95;;;20.40;38.90;;;;;;2591217;52;20961;-84
2022/04/18 07:43:54;;;;;;;2.62;0.98;;;20.60;37.50;;;;;;2345130;54;20975;-85
2022/04/18 07:46:20;;;;;;;2.87;1.12;;;20.70;36.80;;;;;;2591352;53;21039;-84
2022/04/18 07:48:48;;;;;;;2.95;1.12;;;20.70;36.00;;;;;;2343523;53;21064;-85
2022/04/18 07:54:00;;;;;;;2.17;0.93;;;20.40;34.50;;;;;;2591212;53;20955;-84
2022/04/18 07:56:27;;;;;;;4.03;1.00;;;20.20;34.00;;;;;;2342106;54;20932;-85
2022/04/18 07:58:53;;;;;;;2.65;1.10;;;20.00;33.50;;;;;;2592842;53;20924;-84
2022/04/18 08:01:22;;;;;;;2.37;1.10;;;19.80;33.30;;;;;;2591611;53;21528;-85
2022/04/18 08:03:48;;;;;;;2.67;1.30;;;19.60;33.00;;;;;;2593346;53;20955;-85
2022/04/18 08:06:16;;;;;;;3.25;1.40;;;19.30;32.80;;;;;;2334483;53;21110;-84
2022/04/18 08:08:42;;;;;;;3.22;1.35;;;19.10;32.90;;;;;;2593970;53;20983;-85
2022/04/18 08:11:12;;;;;;;3.45;1.35;;;18.90;33.00;;;;;;2592194;53;21498;-84
2022/04/18 08:13:40;;;;;;;2.90;1.20;;;18.80;33.40;;;;;;2347341;54;20944;-83
2022/04/18 08:16:07;;;;;;;3.65;1.30;;;18.80;33.80;;;;;;2592030;53;21344;-85
2022/04/18 08:18:38;;;;;;;2.83;1.00;;;18.90;34.30;;;;;;2592606;53;21622;-84
2022/04/18 08:21:04;;;;;;;2.55;1.15;;;19.00;34.50;;;;;;2591892;53;21003;-83
2022/04/18 08:23:31;;;;;;;2.80;1.30;;;19.30;34.80;;;;;;2592019;53;20991;-83
2022/04/18 08:25:58;;;;;;;2.20;0.95;;;19.40;34.90;;;;;;2347428;54;20944;-85
2022/04/18 08:28:25;;;;;;;3.67;1.15;;;19.50;34.60;;;;;;2346112;54;20956;-84
2022/04/18 08:30:52;;;;;;;4.82;1.00;;;19.70;34.40;;;;;;2591504;53;20935;-82
2022/04/18 08:33:18;;;;;;;2.17;0.90;;;19.80;34.10;;;;;;2332749;53;20994;-84
2022/04/18 08:35:45;;;;;;;2.42;1.02;;;19.90;34.00;;;;;;2579003;53;21976;-86
2022/04/18 08:38:11;;;;;;;2.37;1.00;;;20.10;34.20;;;;;;2584009;53;20955;-84
2022/04/18 08:40:37;;;;;;;2.65;1.00;;;20.20;34.20;;;;;;2573323;52;20959;-85
2022/04/18 08:43:04;;;;;;;1.92;0.93;;;20.40;34.20;;;;;;2579287;52;21063;-84
2022/04/18 08:45:31;;;;;;;3.35;1.33;;;20.50;34.00;;;;;;2566723;52;21612;-84
2022/04/18 08:53:30;;;;;;;2.78;1.12;;;20.80;33.60;;;;;;2575594;52;22030;-83
2022/04/18 08:55:58;;;;;;;2.47;1.10;;;20.90;33.40;;;;;;2567891;52;20961;-84
2022/04/18 08:58:26;;;;;;;2.37;0.93;;;21.00;33.40;;;;;;2579288;52;20936;-84
2022/04/18 09:00:53;;;;;;;2.00;0.88;;;21.10;33.30;;;;;;2336407;54;21114;-85
2022/04/18 09:03:22;;;;;;;2.12;0.80;;;21.20;33.10;;;;;;2580566;53;20923;-85
2022/04/18 09:05:49;;;;;;;2.20;0.90;;;21.20;33.10;;;;;;2337115;54;20948;-84
2022/04/18 09:08:16;;;;;;;2.28;1.00;;;21.40;33.30;;;;;;2339524;54;21388;-85
2022/04/18 09:10:42;;;;;;;2.83;1.12;;;21.50;33.10;;;;;;2555882;52;20924;-85
2022/04/18 09:13:13;;;;;;;2.25;1.00;;;21.60;33.50;;;;;;2581485;53;20964;-85
2022/04/18 09:15:41;;;;;;;2.53;0.90;;;21.60;32.10;;;;;;2338188;54;21039;-85
2022/04/18 09:18:20;;;;;;;2.62;1.00;;;21.60;31.80;;;;;;2583044;53;21016;-84
2022/04/18 09:20:53;;;;;;;1.90;0.80;;;21.60;31.40;;;;;;2584023;53;20971;-82
2022/04/18 09:23:30;;;;;;;1.85;0.90;;;21.60;31.60;;;;;;2556091;52;21592;-85
2022/04/18 09:26:04;;;;;;;2.90;1.10;;;21.60;31.50;;;;;;2585730;53;20928;-86
2022/04/18 09:28:35;;;;;;;2.83;1.20;;;21.60;31.30;;;;;;2320487;55;20944;-81
2022/04/18 09:31:04;;;;;;;1.57;0.70;;;21.70;31.50;;;;;;2586976;53;20924;-82
2022/04/18 09:33:40;;;;;;;2.12;0.93;;;21.70;31.60;;;;;;2322377;55;21522;-81
2022/04/18 09:36:11;;;;;;;2.15;0.90;;;21.80;31.60;;;;;;2565001;53;21015;-82
2022/04/18 09:38:40;;;;;;;2.12;0.95;;;21.80;31.40;;;;;;2580864;52;21059;-83
2022/04/18 09:41:07;;;;;;;3.50;1.33;;;21.90;31.20;;;;;;2587544;53;21007;-82
2022/04/18 09:43:40;;;;;;;2.67;0.90;;;21.90;31.30;;;;;;2340678;54;21038;-82
2022/04/18 09:46:08;;;;;;;2.70;1.00;;;22.00;31.50;;;;;;2339315;54;20990;-83
2022/04/18 09:48:34;;;;;;;2.90;1.30;;;22.00;31.50;;;;;;2581444;53;20923;-81
2022/04/18 09:51:07;;;;;;;2.55;1.10;;;22.10;31.30;;;;;;2580731;53;20980;-83
2022/04/18 09:53:33;;;;;;;2.83;1.10;;;22.20;30.70;;;;;;2578937;53;20933;-82
2022/04/18 09:56:01;;;;;;;3.62;1.17;;;22.20;30.30;;;;;;2576844;53;21805;-81
2022/04/18 09:58:27;;;;;;;2.33;1.00;;;22.20;30.00;;;;;;2576467;53;20935;-82
2022/04/18 10:01:23;;;;;;;5.43;1.37;;;22.10;29.90;;;;;;2575302;53;20927;-82
2022/04/18 10:03:52;;;;;;;2.85;1.30;;;22.10;30.10;;;;;;2554556;52;20956;-86
2022/04/18 10:06:21;;;;;;;3.47;1.10;;;22.10;30.30;;;;;;2578026;53;20947;-84
2022/04/18 10:08:50;;;;;;;2.60;1.08;;;22.10;30.10;;;;;;2576179;53;20924;-81
2022/04/18 10:11:17;;;;;;;2.58;0.85;;;22.20;30.30;;;;;;2554813;52;20990;-85
2022/04/18 10:13:43;;;;;;;2.08;1.00;;;22.30;30.40;;;;;;2326520;53;20911;-81
2022/04/18 10:16:10;;;;;;;2.42;1.10;;;22.40;30.00;;;;;;2331119;54;20916;-82
2022/04/18 10:18:43;;;;;;;2.80;1.10;;;22.40;29.90;;;;;;2579328;53;20931;-86
2022/04/18 10:24:57;;;;;;;3.08;1.23;;;22.40;29.80;;;;;;2335117;54;21999;-83
2022/04/18 10:27:55;;;;;;;3.30;1.42;;;22.40;30.00;;;;;;2582303;53;20944;-82
2022/04/18 10:30:21;;;;;;;3.58;1.40;;;22.30;29.30;;;;;;2580586;53;20912;-85
2022/04/18 10:32:48;;;;;;;3.20;1.50;;;22.50;29.60;;;;;;2336542;54;20927;-83
2022/04/18 10:35:15;;;;;;;2.67;1.23;;;22.40;29.60;;;;;;2562539;52;21002;-82
2022/04/18 10:37:42;;;;;;;2.40;1.10;;;22.50;29.60;;;;;;2578696;52;20952;-84
2022/04/18 10:40:09;;;;;;;2.50;1.12;;;22.50;29.50;;;;;;2334748;54;20975;-83
2022/04/18 10:42:40;;;;;;;2.53;1.25;;;22.50;29.40;;;;;;2560966;53;20951;-85
2022/04/18 10:45:27;;;;;;;2.37;1.00;;;22.50;29.30;;;;;;2329624;53;20931;-82
2022/04/18 10:48:10;;;;;;;2.42;1.00;;;22.50;28.90;;;;;;2578498;53;20912;-82
2022/04/18 10:50:47;;;;;;;2.95;1.10;;;22.50;28.80;;;;;;2580274;53;20979;-86
2022/04/18 10:53:36;;;;;;;3.03;1.20;;;22.50;28.90;;;;;;2553392;53;20928;-82
2022/04/18 10:56:11;;;;;;;3.00;1.15;;;22.50;29.00;;;;;;2323568;53;20963;-84
2022/04/18 10:58:40;;;;;;;4.18;1.10;;;22.60;28.80;;;;;;2574146;52;20983;-86
2022/04/18 11:01:08;;;;;;;2.00;1.02;;;22.50;28.90;;;;;;2546066;52;20999;-84
2022/04/18 11:03:39;;;;;;;2.22;1.00;;;22.60;28.90;;;;;;2554805;52;20954;-82
2022/04/18 11:06:56;;;;;;;2.95;1.10;;;22.60;28.90;;;;;;2575702;52;21000;-82
2022/04/18 11:09:23;;;;;;;2.12;0.93;;;22.60;28.80;;;;;;2576402;53;20967;-85
2022/04/18 11:12:05;;;;;;;2.08;0.77;;;22.70;29.00;;;;;;2320401;53;20959;-84
2022/04/18 11:15:05;;;;;;;;;;;22.70;29.00;;;;;;2339546;54;20999;-84
2022/04/18 11:17:38;;;;;;;2.90;1.10;;;22.80;29.30;;;;;;2337634;54;20074;-85
2022/04/18 11:20:35;;;;;;;1.92;0.82;;;22.90;29.00;;;;;;2580818;53;21003;-85
2022/04/18 11:23:26;;;;;;;2.78;0.98;;;23.00;29.20;;;;;;2581770;53;20963;-86
2022/04/18 11:26:00;;;;;;;3.97;1.00;;;23.10;29.10;;;;;;2578480;53;21043;-84
2022/04/18 11:28:36;;;;;;;2.40;1.10;;;23.20;29.40;;;;;;2338575;54;20931;-84
2022/04/18 11:31:10;;;;;;;2.58;1.20;;;23.30;29.00;;;;;;2334498;54;22073;-84
2022/04/18 11:33:41;;;;;;;2.42;1.20;;;23.40;28.70;;;;;;2578461;53;21051;-87
2022/04/18 11:36:08;;;;;;;3.45;1.40;;;23.40;28.60;;;;;;2333882;54;20956;-84
2022/04/18 11:38:35;;;;;;;3.45;1.30;;;23.40;28.50;;;;;;2576782;53;21557;-84
2022/04/18 11:41:09;;;;;;;2.95;1.10;;;23.40;28.40;;;;;;2576596;53;21023;-86
2022/04/18 11:43:35;;;;;;;2.53;1.10;;;23.40;28.30;;;;;;2333949;54;22045;-85
2022/04/18 11:46:08;;;;;;;2.03;0.90;;;23.40;28.40;;;;;;2577287;53;21031;-85
2022/04/18 11:48:35;;;;;;;4.40;1.20;;;23.50;28.40;;;;;;2315928;53;20999;-84
2022/04/18 11:51:02;;;;;;;2.83;1.12;;;23.50;28.30;;;;;;2566080;52;20928;-83
2022/04/18 11:53:32;;;;;;;2.75;1.12;;;23.50;28.00;;;;;;2334232;53;21469;-85
2022/04/18 11:56:02;;;;;;;2.70;0.98;;;23.50;28.00;;;;;;2334078;54;22031;-85
2022/04/18 11:58:28;;;;;;;2.42;1.00;;;23.50;28.00;;;;;;2555722;52;21079;-85
2022/04/18 12:09:17;;;;;;;2.10;1.10;;;23.50;27.80;;;;;;2548872;53;21039;-82
2022/04/18 12:11:43;;;;;;;2.60;1.20;;;23.50;27.80;;;;;;2576734;53;21106;-82
2022/04/18 12:14:12;;;;;;;3.10;1.10;;;23.50;28.00;;;;;;2313931;53;22094;-82
2022/04/18 12:16:39;;;;;;;2.60;1.00;;;23.50;27.90;;;;;;2332499;54;20920;-82
2022/04/18 12:19:11;;;;;;;2.95;1.10;;;23.60;28.00;;;;;;2577956;53;20925;-83
2022/04/18 12:21:40;;;;;;;2.62;1.20;;;23.70;27.90;;;;;;2333324;54;21043;-84
2022/04/18 12:24:08;;;;;;;3.03;1.20;;;23.80;28.00;;;;;;2578398;53;21010;-83
2022/04/18 12:26:34;;;;;;;3.30;1.33;;;23.80;27.90;;;;;;2578707;53;20936;-83
2022/04/18 12:29:12;;;;;;;2.28;1.10;;;23.80;27.70;;;;;;2577794;53;21079;-85
2022/04/18 12:31:39;;;;;;;2.35;1.00;;;23.80;27.90;;;;;;2312857;55;20995;-83
2022/04/18 12:34:06;;;;;;;2.08;0.93;;;23.90;28.00;;;;;;2576976;53;21108;-83
2022/04/18 12:36:33;;;;;;;2.70;1.02;;;23.90;28.10;;;;;;2548416;52;21818;-83
2022/04/18 12:39:01;;;;;;;2.78;1.10;;;24.00;28.10;;;;;;2333105;54;20967;-85
2022/04/18 12:41:37;;;;;;;3.47;1.12;;;24.10;28.00;;;;;;2577143;53;21668;-82
2022/04/18 12:44:11;;;;;;;2.40;1.00;;;24.20;27.90;;;;;;2332762;54;21027;-82
2022/04/18 12:46:38;;;;;;;2.12;1.05;;;24.30;27.80;;;;;;2577112;53;20948;-82
2022/04/18 12:49:11;;;;;;;2.60;1.00;;;24.40;28.10;;;;;;2333521;54;20940;-82
2022/04/18 12:51:42;;;;;;;2.50;1.10;;;24.50;28.20;;;;;;2548093;53;20936;-81
2022/04/18 12:54:29;;;;;;;2.53;1.30;;;24.60;28.00;;;;;;2576917;53;21041;-83
2022/04/18 12:56:55;;;;;;;2.95;1.12;;;24.80;27.50;;;;;;2576528;53;20968;-84
2022/04/18 12:59:31;;;;;;;2.58;1.10;;;24.80;27.70;;;;;;2576785;53;21023;-83
2022/04/18 13:02:12;;;;;;;2.37;1.12;;;24.80;27.20;;;;;;2577080;53;20926;-85
2022/04/18 13:04:38;;;;;;;2.10;0.90;;;24.80;27.20;;;;;;2576405;53;20987;-83
2022/04/18 13:07:06;;;;;;;2.97;1.20;;;24.80;27.40;;;;;;2575903;53;20944;-83
2022/04/18 13:09:33;;;;;;;2.22;0.80;;;24.80;27.30;;;;;;2575845;53;20939;-82
2022/04/18 13:12:07;;;;;;;3.12;1.17;;;24.80;27.20;;;;;;2332353;54;22099;-83
2022/04/18 13:14:37;;;;;;;2.25;1.00;;;24.80;26.90;;;;;;2576051;53;20928;-82
2022/04/18 13:17:07;;;;;;;2.87;1.02;;;24.80;26.90;;;;;;2556648;52;22028;-82
2022/04/18 13:19:35;;;;;;;2.40;1.05;;;24.80;26.90;;;;;;2568983;52;20908;-83
2022/04/18 13:22:02;;;;;;;2.30;0.90;;;24.80;27.20;;;;;;2577738;53;20944;-82
2022/04/18 13:24:29;;;;;;;2.08;1.00;;;24.80;27.20;;;;;;2332077;54;20955;-82
2022/04/18 13:26:55;;;;;;;1.98;0.90;;;24.90;27.50;;;;;;2576749;53;20948;-82
2022/04/18 13:29:21;;;;;;;4.40;1.10;;;24.90;27.40;;;;;;2576086;53;20943;-84
2022/04/18 13:31:48;;;;;;;2.53;1.20;;;25.00;27.10;;;;;;2576085;53;20924;-82
2022/04/18 13:34:15;;;;;;;1.77;0.80;;;25.00;27.00;;;;;;2332694;54;22285;-83